Time;durP1;ratioP1;P1;durP2;ratioP2;P2;SDS_P1;SDS_P2;PMS_P1;PMS_P2;Temp;Humidity;BMP_temperature;BMP_pressure;BME280_temperature;BME280_humidity;BME280_pressure;Samples;Min_cycle;Max_cycle;Signal;HPM_P1;HPM_P2
2021/05/29 00:00:44;;;;;;;1.50;1.20;;;11.10;97.50;;;;;;5012056;28;20506;-81
2021/05/29 00:03:10;;;;;;;1.50;1.00;;;11.10;97.80;;;;;;5019057;28;20871;-81
2021/05/29 00:05:37;;;;;;;1.50;1.10;;;11.10;98.20;;;;;;5014717;28;20488;-81
2021/05/29 00:08:04;;;;;;;1.50;1.10;;;11.00;98.20;;;;;;5020932;28;20499;-81
2021/05/29 00:10:31;;;;;;;1.50;1.10;;;11.00;98.20;;;;;;5011182;28;20884;-81
2021/05/29 00:12:57;;;;;;;1.50;1.13;;;11.00;98.20;;;;;;5019915;28;20487;-81
2021/05/29 00:15:23;;;;;;;1.50;1.10;;;11.00;98.20;;;;;;5013864;28;20484;-82
2021/05/29 00:17:50;;;;;;;1.50;1.10;;;11.00;98.20;;;;;;5020440;28;20483;-82
2021/05/29 00:20:16;;;;;;;1.50;1.10;;;10.90;98.20;;;;;;5012892;28;20558;-81
2021/05/29 00:22:43;;;;;;;1.50;1.10;;;10.90;98.20;;;;;;5019278;28;20490;-82
2021/05/29 00:25:10;;;;;;;1.50;1.10;;;10.90;98.20;;;;;;5014915;28;21052;-82
2021/05/29 00:27:36;;;;;;;1.50;1.10;;;10.90;98.20;;;;;;5016678;28;20479;-81
2021/05/29 00:30:03;;;;;;;1.50;1.10;;;10.90;98.20;;;;;;5012087;28;20522;-81
2021/05/29 00:32:30;;;;;;;1.50;1.10;;;10.80;98.20;;;;;;5017334;28;20475;-81
2021/05/29 00:34:56;;;;;;;1.50;1.10;;;10.80;98.20;;;;;;5015052;28;20463;-81
2021/05/29 00:37:22;;;;;;;1.50;1.20;;;10.80;98.20;;;;;;5016561;28;20491;-81
2021/05/29 00:39:49;;;;;;;1.50;1.20;;;10.80;98.20;;;;;;5013339;28;20650;-82
2021/05/29 00:42:16;;;;;;;1.50;1.10;;;10.70;98.20;;;;;;5015792;28;20488;-82
2021/05/29 00:44:50;;;;;;;1.50;1.10;;;10.70;98.20;;;;;;5013904;28;20929;-81
2021/05/29 00:47:19;;;;;;;1.50;1.10;;;10.70;98.20;;;;;;5016426;28;20526;-81
2021/05/29 00:49:45;;;;;;;1.50;1.10;;;10.70;98.20;;;;;;5017180;28;20459;-82
2021/05/29 00:52:14;;;;;;;1.50;1.20;;;10.70;98.20;;;;;;5016315;28;20487;-81
2021/05/29 00:54:40;;;;;;;1.50;1.10;;;10.60;98.20;;;;;;5013907;28;20471;-81
2021/05/29 00:57:09;;;;;;;1.50;1.20;;;10.60;98.20;;;;;;5013257;28;20491;-82
2021/05/29 00:59:36;;;;;;;1.50;1.10;;;10.60;98.20;;;;;;5017806;28;20487;-82
2021/05/29 01:02:03;;;;;;;1.50;1.10;;;10.60;98.20;;;;;;5015693;28;20566;-82
2021/05/29 01:04:29;;;;;;;1.50;1.10;;;10.60;98.20;;;;;;5013068;28;20786;-81
2021/05/29 01:06:56;;;;;;;1.50;1.10;;;10.50;98.20;;;;;;5011062;28;20487;-81
2021/05/29 01:09:23;;;;;;;1.50;1.10;;;10.50;98.20;;;;;;5019667;28;21098;-82
2021/05/29 01:11:51;;;;;;;1.50;1.10;;;10.50;98.20;;;;;;5011271;28;21025;-82
2021/05/29 01:14:18;;;;;;;1.50;1.10;;;10.50;98.20;;;;;;5018381;28;20474;-82
2021/05/29 01:16:54;;;;;;;1.50;1.10;;;10.40;98.20;;;;;;5010285;28;20524;-82
2021/05/29 01:19:20;;;;;;;1.50;1.10;;;10.40;98.20;;;;;;5019475;28;20466;-82
2021/05/29 01:21:47;;;;;;;1.50;1.10;;;10.30;98.20;;;;;;5010660;28;20475;-83
2021/05/29 01:24:15;;;;;;;1.50;1.30;;;10.30;98.20;;;;;;5016374;28;20469;-82
2021/05/29 01:26:41;;;;;;;1.50;1.10;;;10.30;98.20;;;;;;4998085;28;20830;-82
2021/05/29 01:29:07;;;;;;;1.50;1.20;;;10.30;98.20;;;;;;5018716;28;20799;-82
2021/05/29 01:31:34;;;;;;;1.53;1.20;;;10.20;98.20;;;;;;5006940;28;20676;-82
2021/05/29 01:34:01;;;;;;;1.50;1.10;;;10.20;98.20;;;;;;5019178;28;20471;-82
2021/05/29 01:36:28;;;;;;;1.50;1.10;;;10.20;98.20;;;;;;5001723;28;20475;-82
2021/05/29 01:38:55;;;;;;;1.50;1.20;;;10.10;98.20;;;;;;5022226;28;20460;-82
2021/05/29 01:41:24;;;;;;;1.50;1.10;;;10.10;98.20;;;;;;5002651;28;20487;-82
2021/05/29 01:43:51;;;;;;;1.50;1.10;;;10.10;98.20;;;;;;5022500;28;20593;-82
2021/05/29 01:46:20;;;;;;;1.50;1.13;;;10.00;98.20;;;;;;5007035;28;20478;-82
2021/05/29 01:48:49;;;;;;;1.50;1.10;;;10.00;98.20;;;;;;5021689;28;20931;-82
2021/05/29 01:51:19;;;;;;;1.50;1.20;;;10.00;98.20;;;;;;5004615;28;20489;-81
2021/05/29 01:53:46;;;;;;;1.50;1.00;;;10.00;98.20;;;;;;5023368;28;20456;-82
2021/05/29 01:56:14;;;;;;;1.50;1.10;;;10.00;98.20;;;;;;5007493;28;20494;-81
2021/05/29 01:58:43;;;;;;;1.50;1.10;;;9.90;98.20;;;;;;5021273;28;20468;-81
2021/05/29 02:01:11;;;;;;;1.50;1.20;;;9.90;98.20;;;;;;5006535;28;20486;-82
2021/05/29 02:03:38;;;;;;;1.50;1.20;;;9.90;98.20;;;;;;5024418;28;20476;-81
2021/05/29 02:06:05;;;;;;;1.50;1.20;;;9.90;98.20;;;;;;5004266;28;20483;-82
2021/05/29 02:08:32;;;;;;;1.50;1.13;;;9.80;98.20;;;;;;5022620;28;20464;-81
2021/05/29 02:10:59;;;;;;;1.50;1.20;;;9.80;98.20;;;;;;5003402;28;20460;-82
2021/05/29 02:13:29;;;;;;;1.50;1.30;;;9.80;98.20;;;;;;5024379;28;20464;-82
2021/05/29 02:15:56;;;;;;;1.50;1.10;;;9.80;98.20;;;;;;5000177;28;20498;-81
2021/05/29 02:18:23;;;;;;;1.57;1.20;;;9.70;98.20;;;;;;5025360;28;20466;-82
2021/05/29 02:20:52;;;;;;;1.50;1.10;;;9.70;98.20;;;;;;5003364;28;20484;-82
2021/05/29 02:23:21;;;;;;;1.50;1.20;;;9.70;98.20;;;;;;5025598;28;20472;-81
2021/05/29 02:25:48;;;;;;;1.57;1.20;;;9.70;98.20;;;;;;5000938;28;20494;-83
2021/05/29 02:28:14;;;;;;;1.53;1.20;;;9.70;98.20;;;;;;5026551;28;20468;-83
2021/05/29 02:30:41;;;;;;;1.50;1.20;;;9.70;98.20;;;;;;5011503;28;20464;-83
2021/05/29 02:33:09;;;;;;;1.53;1.20;;;9.60;98.20;;;;;;5016053;28;20499;-83
2021/05/29 02:35:36;;;;;;;1.50;1.20;;;9.60;98.20;;;;;;5010199;28;21011;-83
2021/05/29 02:38:04;;;;;;;1.57;1.20;;;9.60;98.20;;;;;;5017142;28;20479;-83
2021/05/29 02:40:31;;;;;;;1.50;1.20;;;9.60;98.20;;;;;;5009820;28;20499;-83
2021/05/29 02:42:57;;;;;;;1.50;1.20;;;9.50;98.20;;;;;;5017027;28;20494;-83
2021/05/29 02:45:24;;;;;;;1.50;1.20;;;9.50;98.20;;;;;;5012145;28;20492;-81
2021/05/29 02:47:50;;;;;;;1.50;1.20;;;9.50;98.20;;;;;;5017072;28;20483;-81
2021/05/29 02:50:18;;;;;;;1.53;1.20;;;9.50;98.20;;;;;;5009272;28;20460;-81
2021/05/29 02:52:44;;;;;;;1.57;1.20;;;9.50;98.20;;;;;;5015775;28;20492;-81
2021/05/29 02:55:15;;;;;;;1.50;1.20;;;9.50;98.20;;;;;;5010642;28;20460;-81
2021/05/29 02:57:42;;;;;;;1.50;1.10;;;9.40;98.20;;;;;;5012043;28;20570;-81
2021/05/29 03:00:11;;;;;;;1.57;1.20;;;9.40;98.20;;;;;;5011734;28;20518;-81
2021/05/29 03:02:37;;;;;;;1.50;1.30;;;9.40;98.20;;;;;;5015648;28;20486;-82
2021/05/29 03:05:04;;;;;;;1.57;1.20;;;9.40;98.20;;;;;;5011856;28;20460;-82
2021/05/29 03:07:31;;;;;;;1.50;1.20;;;9.30;98.20;;;;;;5012795;28;20487;-81
2021/05/29 03:09:58;;;;;;;1.60;1.30;;;9.30;98.20;;;;;;5012536;28;20853;-81
2021/05/29 03:12:25;;;;;;;1.57;1.23;;;9.30;98.20;;;;;;5013477;28;20808;-81
2021/05/29 03:14:52;;;;;;;1.50;1.20;;;9.30;98.20;;;;;;5010205;28;20870;-81
2021/05/29 03:17:19;;;;;;;1.50;1.20;;;9.20;98.20;;;;;;5014269;28;20568;-80
2021/05/29 03:19:45;;;;;;;1.50;1.20;;;9.20;98.20;;;;;;5020544;28;20488;-81
2021/05/29 03:22:11;;;;;;;1.50;1.30;;;9.20;98.20;;;;;;5012428;28;20557;-81
2021/05/29 03:24:38;;;;;;;1.57;1.27;;;9.20;98.20;;;;;;5017403;28;20526;-81
2021/05/29 03:27:06;;;;;;;1.50;1.20;;;9.20;98.20;;;;;;5013816;28;20553;-81
2021/05/29 03:29:32;;;;;;;1.50;1.20;;;9.20;98.20;;;;;;5018972;28;20471;-81
2021/05/29 03:31:58;;;;;;;1.50;1.20;;;9.10;98.20;;;;;;5009902;28;20548;-82
2021/05/29 03:34:24;;;;;;;1.53;1.20;;;9.20;98.20;;;;;;5020790;28;20464;-82
2021/05/29 03:36:50;;;;;;;1.50;1.20;;;9.20;98.20;;;;;;5011890;28;20487;-82
2021/05/29 03:39:17;;;;;;;1.50;1.20;;;9.20;98.20;;;;;;5021593;28;20472;-82
2021/05/29 03:41:44;;;;;;;1.50;1.20;;;9.20;98.20;;;;;;5012604;28;20491;-82
2021/05/29 03:44:12;;;;;;;1.53;1.20;;;9.20;98.20;;;;;;5022624;28;20518;-81
2021/05/29 03:46:41;;;;;;;1.50;1.30;;;9.10;98.20;;;;;;5009690;28;20530;-81
2021/05/29 03:49:08;;;;;;;1.50;1.20;;;9.20;98.20;;;;;;5022184;28;20478;-81
2021/05/29 03:51:34;;;;;;;1.50;1.20;;;9.20;98.20;;;;;;5011576;28;20509;-81
2021/05/29 03:54:00;;;;;;;1.50;1.20;;;9.20;98.20;;;;;;5024752;28;20460;-81
2021/05/29 03:56:27;;;;;;;1.50;1.10;;;9.20;98.20;;;;;;5006184;28;20480;-81
2021/05/29 03:58:54;;;;;;;1.50;1.20;;;9.20;98.20;;;;;;5016187;28;20468;-81
2021/05/29 04:01:20;;;;;;;1.53;1.20;;;9.10;98.20;;;;;;5009743;28;20750;-80
2021/05/29 04:03:46;;;;;;;1.50;1.10;;;9.10;98.20;;;;;;5018901;28;20526;-81
2021/05/29 04:06:13;;;;;;;1.50;1.10;;;9.10;98.20;;;;;;5008214;28;20686;-82
2021/05/29 04:08:39;;;;;;;1.50;1.20;;;9.10;98.20;;;;;;5026657;28;20470;-81
2021/05/29 04:11:05;;;;;;;1.50;1.20;;;9.20;98.20;;;;;;5007557;28;21441;-81
2021/05/29 04:13:32;;;;;;;1.50;1.10;;;9.20;98.20;;;;;;5026434;28;20468;-81
2021/05/29 04:15:59;;;;;;;1.50;1.10;;;9.20;98.20;;;;;;5006564;28;20575;-81
2021/05/29 04:18:25;;;;;;;1.53;1.20;;;9.20;98.20;;;;;;5025212;28;20484;-81
2021/05/29 04:20:51;;;;;;;1.50;1.10;;;9.20;98.20;;;;;;5001951;28;20857;-81
2021/05/29 04:23:17;;;;;;;1.50;1.20;;;9.30;98.20;;;;;;5028243;28;20480;-81
2021/05/29 04:25:44;;;;;;;1.50;1.10;;;9.30;98.20;;;;;;5014971;28;20506;-81
2021/05/29 04:28:10;;;;;;;1.50;1.20;;;9.30;98.20;;;;;;5018778;28;20480;-81
2021/05/29 04:30:37;;;;;;;1.50;1.20;;;9.40;98.20;;;;;;5014612;28;20951;-81
2021/05/29 04:33:04;;;;;;;1.50;1.10;;;9.40;98.20;;;;;;5019599;28;20569;-81
2021/05/29 04:35:30;;;;;;;1.50;1.20;;;9.40;98.20;;;;;;5012964;28;20572;-81
2021/05/29 04:37:57;;;;;;;1.53;1.13;;;9.50;98.20;;;;;;5020130;28;20491;-81
2021/05/29 04:40:26;;;;;;;1.50;1.10;;;9.50;98.20;;;;;;5014521;28;20509;-81
2021/05/29 04:42:53;;;;;;;1.50;1.10;;;9.60;98.20;;;;;;5021389;28;20483;-80
2021/05/29 04:45:21;;;;;;;1.53;1.20;;;9.70;98.20;;;;;;5012497;28;20506;-81
2021/05/29 04:47:47;;;;;;;1.53;1.13;;;9.80;98.20;;;;;;5017031;28;20478;-80
2021/05/29 04:50:15;;;;;;;1.50;1.20;;;10.00;98.20;;;;;;5014667;28;21004;-80
2021/05/29 04:52:41;;;;;;;1.50;1.20;;;10.10;98.20;;;;;;5019101;28;20483;-80
2021/05/29 04:55:09;;;;;;;1.57;1.10;;;10.40;98.20;;;;;;5010368;28;20838;-79
2021/05/29 04:57:36;;;;;;;1.50;1.20;;;10.60;98.20;;;;;;5016160;28;20486;-79
2021/05/29 05:00:04;;;;;;;1.53;1.10;;;10.80;98.20;;;;;;5012639;28;20764;-80
2021/05/29 05:02:30;;;;;;;1.50;1.10;;;11.00;98.20;;;;;;5014310;28;20486;-79
2021/05/29 05:04:56;;;;;;;1.50;1.00;;;11.20;98.20;;;;;;5014472;28;20468;-80
2021/05/29 05:07:23;;;;;;;1.50;1.00;;;11.40;98.20;;;;;;5016906;28;20489;-80
2021/05/29 05:09:50;;;;;;;1.50;1.10;;;11.60;98.20;;;;;;5015979;28;20460;-80
2021/05/29 05:12:16;;;;;;;1.60;1.20;;;11.90;98.20;;;;;;5013706;28;20791;-80
2021/05/29 05:14:42;;;;;;;1.50;1.10;;;12.20;98.20;;;;;;5015395;28;20468;-80
2021/05/29 05:17:08;;;;;;;1.50;1.10;;;12.40;98.20;;;;;;5013493;28;20509;-80
2021/05/29 05:19:35;;;;;;;1.50;1.00;;;12.50;98.20;;;;;;5016713;28;20479;-79
2021/05/29 05:22:01;;;;;;;1.50;1.00;;;12.70;98.20;;;;;;5010453;28;20483;-79
2021/05/29 05:24:28;;;;;;;1.60;1.20;;;12.90;98.20;;;;;;5009551;28;20533;-78
2021/05/29 05:26:55;;;;;;;1.50;1.00;;;13.10;98.20;;;;;;5009029;28;20491;-79
2021/05/29 05:29:21;;;;;;;1.50;1.10;;;13.40;98.20;;;;;;5018211;28;20499;-79
2021/05/29 05:31:47;;;;;;;1.53;1.00;;;13.50;97.00;;;;;;5009101;28;20554;-78
2021/05/29 05:34:15;;;;;;;1.50;1.00;;;13.70;97.30;;;;;;5016983;28;20471;-79
2021/05/29 05:36:42;;;;;;;1.50;1.00;;;14.00;95.30;;;;;;5007605;28;20499;-79
2021/05/29 05:39:10;;;;;;;1.50;1.00;;;14.30;94.50;;;;;;5020365;28;20475;-78
2021/05/29 05:41:38;;;;;;;1.50;1.00;;;14.50;94.10;;;;;;5005460;28;20479;-79
2021/05/29 05:44:05;;;;;;;1.50;1.03;;;14.50;93.40;;;;;;5020072;28;20720;-79
2021/05/29 05:46:31;;;;;;;1.50;1.00;;;14.60;93.00;;;;;;5006989;28;20502;-78
2021/05/29 05:48:57;;;;;;;1.70;1.47;;;14.60;92.50;;;;;;5020002;28;20468;-78
2021/05/29 05:51:25;;;;;;;1.50;1.00;;;14.70;93.40;;;;;;5005425;28;20595;-79
2021/05/29 05:53:52;;;;;;;1.50;1.00;;;14.80;92.90;;;;;;5020996;28;20799;-79
2021/05/29 05:56:25;;;;;;;1.50;0.90;;;15.00;93.00;;;;;;5005641;28;20509;-79
2021/05/29 05:58:54;;;;;;;1.70;1.40;;;15.20;91.80;;;;;;5017402;28;20492;-79
2021/05/29 06:01:22;;;;;;;1.50;0.90;;;15.30;91.80;;;;;;5005617;28;20488;-79
2021/05/29 06:03:48;;;;;;;1.50;1.00;;;15.50;91.10;;;;;;5021187;28;20689;-79
2021/05/29 06:06:15;;;;;;;1.50;1.00;;;15.60;89.80;;;;;;5004517;28;20483;-79
2021/05/29 06:08:41;;;;;;;1.50;1.00;;;15.70;89.70;;;;;;5019260;28;20503;-79
2021/05/29 06:11:07;;;;;;;1.50;1.00;;;15.90;89.10;;;;;;5000327;28;20999;-79
2021/05/29 06:19:15;;;;;;;1.50;1.00;;;16.40;88.00;;;;;;5018312;28;20455;-79
2021/05/29 06:21:45;;;;;;;1.50;0.90;;;16.60;89.40;;;;;;5008601;28;20502;-79
2021/05/29 06:24:13;;;;;;;1.50;1.00;;;17.00;86.60;;;;;;5020062;28;20479;-79
2021/05/29 06:26:40;;;;;;;1.50;0.90;;;17.30;85.20;;;;;;5007747;28;20487;-79
2021/05/29 06:29:06;;;;;;;1.50;1.00;;;17.40;85.00;;;;;;5016996;28;20551;-79
2021/05/29 06:31:34;;;;;;;1.53;1.00;;;17.80;84.50;;;;;;5007697;28;20482;-79
2021/05/29 06:34:00;;;;;;;1.50;1.00;;;18.00;83.50;;;;;;5019314;28;20518;-79
2021/05/29 06:36:26;;;;;;;1.50;1.00;;;18.20;83.20;;;;;;5007094;28;20494;-79
2021/05/29 06:38:53;;;;;;;1.50;0.90;;;18.40;82.00;;;;;;5017768;28;20468;-79
2021/05/29 06:41:19;;;;;;;1.50;0.93;;;18.50;81.00;;;;;;5004113;28;20478;-78
2021/05/29 06:43:45;;;;;;;1.50;1.00;;;18.60;81.00;;;;;;5019428;28;20464;-78
2021/05/29 06:46:12;;;;;;;1.50;1.00;;;18.70;80.20;;;;;;5000583;28;20888;-79
2021/05/29 06:48:39;;;;;;;1.50;1.00;;;18.90;80.30;;;;;;5022466;28;20556;-79
2021/05/29 06:51:05;;;;;;;1.97;1.10;;;19.10;79.30;;;;;;5002996;28;20459;-79
2021/05/29 06:53:35;;;;;;;1.50;0.97;;;19.30;79.10;;;;;;5021067;28;20474;-79
2021/05/29 06:58:50;;;;;;;1.50;0.90;;;19.60;77.60;;;;;;5022558;28;20455;-79
2021/05/29 07:01:17;;;;;;;1.50;1.00;;;19.70;77.80;;;;;;5005729;28;20539;-78
2021/05/29 07:03:44;;;;;;;1.50;0.90;;;19.80;78.60;;;;;;5022960;28;20460;-79
2021/05/29 07:06:11;;;;;;;1.50;0.90;;;20.00;79.50;;;;;;5006611;28;20572;-79
2021/05/29 07:08:37;;;;;;;1.50;0.93;;;20.20;79.10;;;;;;5024818;28;20464;-79
2021/05/29 07:11:04;;;;;;;1.50;0.90;;;20.40;78.40;;;;;;4998450;28;20465;-79
2021/05/29 07:13:30;;;;;;;1.50;0.90;;;20.50;76.50;;;;;;5025603;28;20471;-79
2021/05/29 07:15:57;;;;;;;1.50;0.90;;;20.60;77.10;;;;;;4999667;28;20567;-78
2021/05/29 07:18:27;;;;;;;1.50;0.90;;;20.70;77.20;;;;;;5026256;28;20499;-79
2021/05/29 07:20:55;;;;;;;1.50;0.90;;;20.90;76.10;;;;;;4998380;28;20487;-79
2021/05/29 07:23:21;;;;;;;1.50;0.90;;;21.10;78.20;;;;;;5025071;28;21923;-79
2021/05/29 07:25:48;;;;;;;1.50;0.90;;;21.20;77.10;;;;;;5001915;28;20483;-79
2021/05/29 07:28:15;;;;;;;1.50;0.90;;;21.20;76.20;;;;;;5026919;28;20518;-79
2021/05/29 07:30:42;;;;;;;1.50;0.90;;;21.20;74.80;;;;;;5009113;28;20475;-79
2021/05/29 07:33:08;;;;;;;1.50;0.90;;;21.20;75.30;;;;;;5016823;28;20487;-79
2021/05/29 07:35:34;;;;;;;1.50;0.90;;;21.30;74.90;;;;;;5011257;28;20479;-79
2021/05/29 07:38:02;;;;;;;1.50;0.90;;;21.40;75.00;;;;;;5002233;28;20494;-78
2021/05/29 07:40:28;;;;;;;1.50;0.90;;;21.50;75.10;;;;;;5010534;28;20460;-79
2021/05/29 07:42:54;;;;;;;1.43;0.90;;;21.70;76.00;;;;;;5014953;28;20513;-79
2021/05/29 07:45:21;;;;;;;1.50;0.90;;;21.60;75.00;;;;;;5011837;28;20522;-79
2021/05/29 07:47:47;;;;;;;1.50;0.90;;;21.80;74.90;;;;;;5015684;28;20586;-79
2021/05/29 07:50:13;;;;;;;1.50;0.90;;;21.80;75.00;;;;;;5011789;28;20468;-79
2021/05/29 07:52:40;;;;;;;1.53;1.00;;;21.70;75.90;;;;;;5016965;28;20510;-79
2021/05/29 07:55:09;;;;;;;1.50;0.90;;;21.70;76.30;;;;;;5010289;28;20508;-78
2021/05/29 07:57:35;;;;;;;1.50;0.90;;;21.70;76.20;;;;;;5014022;28;20502;-78
2021/05/29 08:00:04;;;;;;;1.50;0.90;;;21.80;76.80;;;;;;5012696;28;20555;-79
2021/05/29 08:02:31;;;;;;;1.50;0.90;;;22.00;76.00;;;;;;5015584;28;20487;-78
2021/05/29 08:04:58;;;;;;;1.50;0.90;;;22.00;76.60;;;;;;5011193;28;20551;-78
2021/05/29 08:07:24;;;;;;;1.43;0.90;;;22.00;75.30;;;;;;5013041;28;20963;-78
2021/05/29 08:09:50;;;;;;;1.50;0.90;;;21.90;76.10;;;;;;5013088;28;20936;-78
2021/05/29 08:12:18;;;;;;;1.47;0.90;;;21.90;75.90;;;;;;5012505;28;20485;-80
2021/05/29 08:14:44;;;;;;;1.50;0.90;;;22.10;74.50;;;;;;5016153;28;20595;-82
2021/05/29 08:17:11;;;;;;;1.50;0.90;;;22.30;75.70;;;;;;5001794;28;20488;-78
2021/05/29 08:19:37;;;;;;;1.50;0.90;;;22.40;74.30;;;;;;5011917;28;20467;-76
2021/05/29 08:22:04;;;;;;;1.50;0.90;;;22.60;74.00;;;;;;5012914;28;20594;-76
2021/05/29 08:24:30;;;;;;;1.50;0.90;;;22.70;74.50;;;;;;5016992;28;20986;-77
2021/05/29 08:26:56;;;;;;;1.50;0.90;;;22.90;73.90;;;;;;5011152;28;20483;-77
2021/05/29 08:29:24;;;;;;;1.50;0.90;;;22.90;73.80;;;;;;5015332;28;20574;-77
2021/05/29 08:31:50;;;;;;;1.47;0.90;;;22.90;73.60;;;;;;5012724;28;20486;-75
2021/05/29 08:34:16;;;;;;;1.50;0.90;;;22.90;71.30;;;;;;5018443;28;20875;-76
2021/05/29 08:36:43;;;;;;;1.50;0.90;;;22.90;72.30;;;;;;5008620;28;20482;-76
2021/05/29 08:39:10;;;;;;;1.50;0.90;;;22.90;74.30;;;;;;5013430;28;20464;-76
2021/05/29 08:41:38;;;;;;;1.47;0.90;;;23.00;72.30;;;;;;5008089;28;20474;-77
2021/05/29 08:44:08;;;;;;;1.50;0.90;;;23.10;71.30;;;;;;5018515;28;20505;-77
2021/05/29 08:46:35;;;;;;;1.50;0.90;;;23.10;69.50;;;;;;5006385;28;20553;-76
2021/05/29 08:49:01;;;;;;;1.50;0.90;;;23.10;71.00;;;;;;5015444;28;20487;-74
2021/05/29 08:51:28;;;;;;;1.50;0.90;;;23.10;70.80;;;;;;4998679;28;20505;-76
2021/05/29 08:53:57;;;;;;;1.50;0.87;;;23.20;70.70;;;;;;5018269;28;20464;-77
2021/05/29 08:56:25;;;;;;;1.50;0.90;;;23.20;68.90;;;;;;5002530;28;20566;-75
2021/05/29 08:58:51;;;;;;;1.50;0.80;;;23.20;69.60;;;;;;5017280;28;20468;-76
2021/05/29 09:01:19;;;;;;;1.57;1.07;;;23.20;69.70;;;;;;5001913;28;20483;-76
2021/05/29 09:03:49;;;;;;;1.50;0.87;;;23.30;68.90;;;;;;5016241;28;20736;-76
2021/05/29 09:06:17;;;;;;;1.47;0.90;;;23.40;68.60;;;;;;5000608;28;20475;-76
2021/05/29 09:08:52;;;;;;;1.50;0.90;;;23.60;71.00;;;;;;5015922;28;20468;-76
2021/05/29 09:11:41;;;;;;;1.50;0.80;;;23.80;68.60;;;;;;5001398;28;20481;-75
2021/05/29 09:14:37;;;;;;;1.50;0.90;;;24.00;67.60;;;;;;5014028;28;20475;-76
2021/05/29 09:17:09;;;;;;;1.50;0.90;;;24.00;67.80;;;;;;5010425;28;20922;-76
2021/05/29 09:19:55;;;;;;;1.50;0.80;;;23.90;67.40;;;;;;5012572;28;20539;-77
2021/05/29 09:22:23;;;;;;;1.50;0.90;;;23.90;66.70;;;;;;4997687;28;21502;-75
2021/05/29 09:25:02;;;;;;;1.50;0.90;;;24.00;66.80;;;;;;5007567;28;20490;-76
2021/05/29 09:27:29;;;;;;;1.50;0.80;;;24.10;67.50;;;;;;4994366;28;21368;-77
2021/05/29 09:29:55;;;;;;;1.50;0.80;;;24.10;67.30;;;;;;5012417;28;20550;-74
2021/05/29 09:32:22;;;;;;;1.50;0.90;;;24.10;65.80;;;;;;5012000;28;20828;-76
2021/05/29 09:34:51;;;;;;;1.47;0.80;;;24.20;66.00;;;;;;5013343;28;20477;-74
2021/05/29 09:37:22;;;;;;;1.50;0.90;;;24.20;66.90;;;;;;5011740;28;20483;-76
2021/05/29 09:39:50;;;;;;;1.50;1.00;;;24.30;67.20;;;;;;5013709;28;20530;-76
2021/05/29 09:42:18;;;;;;;1.50;0.90;;;24.30;67.10;;;;;;5009726;28;20493;-77
2021/05/29 09:44:46;;;;;;;1.50;0.80;;;24.40;67.10;;;;;;5010919;28;20859;-77
2021/05/29 09:47:14;;;;;;;1.50;0.90;;;24.50;65.90;;;;;;5010375;28;20487;-76
2021/05/29 09:49:48;;;;;;;1.50;0.80;;;24.50;66.60;;;;;;5012769;28;21032;-76
2021/05/29 09:52:33;;;;;;;1.50;0.80;;;24.60;66.80;;;;;;5005798;28;20508;-78
2021/05/29 09:55:03;;;;;;;1.50;0.80;;;24.60;67.90;;;;;;5008449;28;20471;-76
2021/05/29 09:57:30;;;;;;;1.50;0.90;;;24.30;67.40;;;;;;5007535;28;20506;-77
2021/05/29 09:59:58;;;;;;;1.50;0.80;;;24.10;68.20;;;;;;5010374;28;20479;-76
2021/05/29 10:02:25;;;;;;;1.50;0.90;;;23.70;69.30;;;;;;5008752;28;20549;-77
2021/05/29 10:04:55;;;;;;;1.50;0.90;;;23.40;68.60;;;;;;5011365;28;20864;-78
2021/05/29 10:07:38;;;;;;;1.50;0.90;;;22.90;69.00;;;;;;5011975;28;20514;-76
2021/05/29 10:10:07;;;;;;;1.50;0.90;;;22.60;70.80;;;;;;5010514;28;20837;-76
2021/05/29 10:12:33;;;;;;;1.50;0.87;;;22.30;70.40;;;;;;5011719;28;20479;-76
2021/05/29 10:15:00;;;;;;;1.50;0.90;;;22.40;70.50;;;;;;5010708;28;20683;-76
2021/05/29 10:17:30;;;;;;;1.40;0.90;;;22.60;70.40;;;;;;5014918;28;20483;-77
2021/05/29 10:19:57;;;;;;;1.43;0.90;;;22.90;70.20;;;;;;5011123;28;20468;-75
2021/05/29 10:22:24;;;;;;;1.43;0.90;;;23.00;70.50;;;;;;5011599;28;20577;-75
2021/05/29 10:24:50;;;;;;;1.50;0.90;;;23.00;69.90;;;;;;5010868;28;20472;-76
2021/05/29 10:27:24;;;;;;;1.50;0.90;;;23.10;69.60;;;;;;5012929;28;20812;-75
2021/05/29 10:29:52;;;;;;;1.50;0.90;;;23.00;69.10;;;;;;5014650;28;20475;-76
2021/05/29 10:32:20;;;;;;;1.40;0.90;;;22.90;69.60;;;;;;5014428;28;20478;-76
2021/05/29 10:34:58;;;;;;;1.43;0.87;;;22.90;69.80;;;;;;5016732;28;21005;-76
2021/05/29 10:37:30;;;;;;;1.50;0.80;;;22.90;68.90;;;;;;5005952;28;20498;-76
2021/05/29 10:40:31;;;;;;;1.43;0.87;;;22.90;69.90;;;;;;5014364;28;20494;-76
2021/05/29 10:43:12;;;;;;;1.90;1.67;;;23.10;70.10;;;;;;5021271;28;20488;-77
2021/05/29 10:45:40;;;;;;;1.50;0.90;;;23.40;69.20;;;;;;5013415;28;20672;-77
2021/05/29 10:48:08;;;;;;;1.50;0.90;;;23.70;68.50;;;;;;5022212;28;20491;-80
2021/05/29 10:51:06;;;;;;;1.50;1.00;;;24.00;68.20;;;;;;5011504;28;20468;-77
2021/05/29 10:53:52;;;;;;;1.50;0.90;;;24.20;67.60;;;;;;5000195;28;20528;-76
2021/05/29 10:56:32;;;;;;;1.50;0.90;;;24.00;67.30;;;;;;5003336;28;20478;-76
2021/05/29 10:59:08;;;;;;;1.47;0.90;;;23.80;67.80;;;;;;5016659;28;20459;-76
2021/05/29 11:02:03;;;;;;;1.43;0.90;;;23.50;67.40;;;;;;5001009;28;20503;-76
2021/05/29 11:04:30;;;;;;;1.47;0.80;;;23.60;67.10;;;;;;5016808;28;21831;-76
2021/05/29 11:06:58;;;;;;;1.50;0.90;;;24.00;68.40;;;;;;5011276;28;20913;-76
2021/05/29 11:09:47;;;;;;;1.47;0.80;;;24.30;67.50;;;;;;5015273;28;20641;-76
2021/05/29 11:12:14;;;;;;;1.50;0.90;;;24.60;68.00;;;;;;5005789;28;20729;-77
2021/05/29 11:14:51;;;;;;;1.47;0.80;;;24.70;66.60;;;;;;5007997;28;20473;-76
2021/05/29 11:17:19;;;;;;;1.50;1.00;;;24.70;67.20;;;;;;5014141;28;20486;-77
2021/05/29 11:20:13;;;;;;;1.50;0.90;;;24.30;67.80;;;;;;5016148;28;20466;-77
2021/05/29 11:22:44;;;;;;;1.50;0.90;;;23.90;68.00;;;;;;5002102;28;20513;-76
2021/05/29 11:25:14;;;;;;;1.50;0.90;;;23.50;68.80;;;;;;5013674;28;20468;-75
2021/05/29 11:27:41;;;;;;;1.47;0.90;;;23.10;67.90;;;;;;5016950;28;20522;-76
2021/05/29 11:30:10;;;;;;;1.40;0.80;;;22.70;69.10;;;;;;5016213;28;20506;-76
2021/05/29 11:32:44;;;;;;;1.50;0.90;;;22.50;70.00;;;;;;5018246;28;20475;-77
2021/05/29 11:35:31;;;;;;;1.50;0.90;;;22.60;69.80;;;;;;5011666;28;20502;-76
2021/05/29 11:38:00;;;;;;;1.50;1.00;;;22.80;68.90;;;;;;5013453;28;20490;-77
2021/05/29 11:40:54;;;;;;;1.50;0.83;;;23.00;68.60;;;;;;5007595;28;20517;-76
2021/05/29 11:43:36;;;;;;;1.47;0.90;;;23.20;68.90;;;;;;4999349;28;20476;-76
2021/05/29 11:46:05;;;;;;;1.47;0.87;;;23.00;69.10;;;;;;4998699;28;20495;-77
2021/05/29 11:48:33;;;;;;;1.47;0.90;;;23.00;69.10;;;;;;5024291;28;20470;-79
2021/05/29 11:51:12;;;;;;;1.43;0.90;;;22.90;68.90;;;;;;5004406;28;20585;-76
2021/05/29 11:53:49;;;;;;;1.50;0.90;;;23.00;69.40;;;;;;5024750;28;20589;-79
2021/05/29 11:56:17;;;;;;;1.40;0.80;;;23.40;67.70;;;;;;5006675;28;20523;-77
2021/05/29 11:59:04;;;;;;;1.50;1.10;;;23.60;67.70;;;;;;5020337;28;20487;-76
2021/05/29 12:01:33;;;;;;;1.43;0.83;;;23.80;67.80;;;;;;5002409;28;21036;-78
2021/05/29 12:04:00;;;;;;;1.43;0.80;;;23.60;67.90;;;;;;5019944;28;20581;-75
2021/05/29 12:06:49;;;;;;;1.47;0.80;;;23.40;69.20;;;;;;5005759;28;20538;-77
2021/05/29 12:09:17;;;;;;;1.50;0.90;;;23.40;69.80;;;;;;5010006;28;20570;-76
2021/05/29 12:11:45;;;;;;;1.50;0.90;;;23.60;70.40;;;;;;5006720;28;21138;-77
2021/05/29 12:14:14;;;;;;;1.50;0.90;;;23.80;68.70;;;;;;5016476;28;21199;-77
2021/05/29 12:16:44;;;;;;;1.50;0.90;;;23.80;68.50;;;;;;5007441;28;20482;-77
2021/05/29 12:19:26;;;;;;;1.47;0.80;;;23.70;67.70;;;;;;5019711;28;20862;-78
2021/05/29 12:21:55;;;;;;;1.43;0.90;;;23.40;67.60;;;;;;5007730;28;20498;-76
2021/05/29 12:24:23;;;;;;;1.47;0.90;;;23.30;70.50;;;;;;5017233;28;20460;-77
2021/05/29 12:26:51;;;;;;;1.47;0.90;;;23.40;69.00;;;;;;5008858;28;20497;-76
2021/05/29 12:29:19;;;;;;;1.43;0.83;;;23.10;68.60;;;;;;5017641;28;20862;-76
2021/05/29 12:31:50;;;;;;;1.40;0.90;;;23.10;70.20;;;;;;5009418;28;20498;-76
2021/05/29 12:34:16;;;;;;;1.50;0.90;;;23.40;70.10;;;;;;5020070;28;20464;-79
2021/05/29 12:37:01;;;;;;;1.50;0.90;;;23.70;68.80;;;;;;5003950;28;20541;-75
2021/05/29 12:39:50;;;;;;;1.50;0.90;;;24.00;69.70;;;;;;5010194;28;20468;-76
2021/05/29 12:42:32;;;;;;;1.40;0.90;;;23.90;68.70;;;;;;5007023;28;20910;-77
2021/05/29 12:45:01;;;;;;;1.50;0.90;;;23.80;68.20;;;;;;5009026;28;20871;-76
2021/05/29 12:47:30;;;;;;;1.40;0.90;;;23.80;67.70;;;;;;5008495;28;20479;-76
2021/05/29 12:49:57;;;;;;;1.50;0.90;;;24.00;68.40;;;;;;5010736;28;20468;-76
2021/05/29 12:52:31;;;;;;;1.50;0.80;;;24.30;67.00;;;;;;5008692;28;20478;-75
2021/05/29 12:54:58;;;;;;;1.50;0.90;;;24.30;67.00;;;;;;5005346;28;20525;-78
2021/05/29 12:57:36;;;;;;;1.50;0.90;;;24.20;66.80;;;;;;5008079;28;20490;-76
2021/05/29 13:00:26;;;;;;;1.50;1.00;;;24.00;68.30;;;;;;5003504;28;20459;-74
2021/05/29 13:08:56;;;;;;;1.50;0.80;;;24.00;67.50;;;;;;5015552;28;20540;-80
2021/05/29 13:11:30;;;;;;;1.50;0.80;;;23.70;66.90;;;;;;5001294;28;20554;-76